sensor_id;sensor_type;location;lat;lon;timestamp;pressure;altitude;pressure_sealevel;temperature;humidity
13765;BME280;6953;48.810;9.204;2023-06-10T00:01:05;98325.81;;;19.28;75.11
13765;BME280;6953;48.810;9.204;2023-06-10T00:03:31;98321.06;;;19.22;75.61
13765;BME280;6953;48.810;9.204;2023-06-10T00:05:56;98070.13;;;17.65;75.78
13765;BME280;6953;48.810;9.204;2023-06-10T00:08:21;97995.44;;;17.22;76.42
13765;BME280;6953;48.810;9.204;2023-06-10T00:10:47;98308.72;;;19.02;76.70
13765;BME280;6953;48.810;9.204;2023-06-10T00:13:12;98279.66;;;18.82;77.13
13765;BME280;6953;48.810;9.204;2023-06-10T00:15:37;98147.81;;;17.95;77.32
13765;BME280;6953;48.810;9.204;2023-06-10T00:18:03;98338.84;;;19.02;77.50
13765;BME280;6953;48.810;9.204;2023-06-10T00:20:30;98063.56;;;17.50;77.56
13765;BME280;6953;48.810;9.204;2023-06-10T00:22:56;98315.19;;;18.99;78.01
13765;BME280;6953;48.810;9.204;2023-06-10T00:25:22;98320.34;;;19.01;77.83
13765;BME280;6953;48.810;9.204;2023-06-10T00:27:47;98325.81;;;18.99;77.89
13765;BME280;6953;48.810;9.204;2023-06-10T00:30:13;98232.84;;;18.43;78.47
13765;BME280;6953;48.810;9.204;2023-06-10T00:32:39;98264.84;;;18.60;79.22
13765;BME280;6953;48.810;9.204;2023-06-10T00:35:04;98337.72;;;18.86;78.96
13765;BME280;6953;48.810;9.204;2023-06-10T00:37:30;98303.00;;;18.78;79.24
13765;BME280;6953;48.810;9.204;2023-06-10T00:39:57;98318.25;;;18.85;79.13
13765;BME280;6953;48.810;9.204;2023-06-10T00:42:22;98142.50;;;17.86;78.92
13765;BME280;6953;48.810;9.204;2023-06-10T00:44:50;98321.59;;;18.97;78.75
13765;BME280;6953;48.810;9.204;2023-06-10T00:47:15;98288.03;;;18.77;78.77
13765;BME280;6953;48.810;9.204;2023-06-10T00:49:41;98108.25;;;17.73;78.83
13765;BME280;6953;48.810;9.204;2023-06-10T00:52:07;98087.44;;;17.60;78.79
13765;BME280;6953;48.810;9.204;2023-06-10T00:54:33;98130.06;;;17.86;78.76
13765;BME280;6953;48.810;9.204;2023-06-10T00:57:00;98339.38;;;19.06;78.26
13765;BME280;6953;48.810;9.204;2023-06-10T00:59:28;98097.38;;;17.76;78.34
13765;BME280;6953;48.810;9.204;2023-06-10T01:01:54;98339.94;;;19.09;78.35
13765;BME280;6953;48.810;9.204;2023-06-10T01:04:20;98322.59;;;19.05;78.91
13765;BME280;6953;48.810;9.204;2023-06-10T01:07:07;98315.44;;;19.06;78.74
13765;BME280;6953;48.810;9.204;2023-06-10T01:12:19;98259.41;;;18.62;79.01
13765;BME280;6953;48.810;9.204;2023-06-10T01:14:48;98257.72;;;18.51;79.60
13765;BME280;6953;48.810;9.204;2023-06-10T01:17:16;98312.94;;;18.85;79.95
13765;BME280;6953;48.810;9.204;2023-06-10T01:19:43;98255.78;;;18.44;80.13
13765;BME280;6953;48.810;9.204;2023-06-10T01:22:09;98296.34;;;18.65;81.01
13765;BME280;6953;48.810;9.204;2023-06-10T01:24:36;98309.19;;;18.69;81.38
13765;BME280;6953;48.810;9.204;2023-06-10T01:27:05;98260.66;;;18.39;81.62
13765;BME280;6953;48.810;9.204;2023-06-10T01:29:43;98308.75;;;18.64;81.79
13765;BME280;6953;48.810;9.204;2023-06-10T01:32:24;98318.53;;;18.45;81.93
13765;BME280;6953;48.810;9.204;2023-06-10T01:34:52;98072.41;;;17.11;82.30
13765;BME280;6953;48.810;9.204;2023-06-10T01:37:19;98330.56;;;18.49;82.86
13765;BME280;6953;48.810;9.204;2023-06-10T01:39:46;98319.53;;;18.44;82.72
13765;BME280;6953;48.810;9.204;2023-06-10T01:42:12;98321.59;;;18.40;82.86
13765;BME280;6953;48.810;9.204;2023-06-10T01:44:39;98288.25;;;18.17;83.14
13765;BME280;6953;48.810;9.204;2023-06-10T01:47:04;98309.72;;;18.25;83.52
13765;BME280;6953;48.810;9.204;2023-06-10T01:49:30;98329.72;;;18.29;83.76
13765;BME280;6953;48.810;9.204;2023-06-10T01:51:55;98307.72;;;18.18;84.35
13765;BME280;6953;48.810;9.204;2023-06-10T01:54:20;98318.06;;;18.21;84.43
13765;BME280;6953;48.810;9.204;2023-06-10T01:56:46;98260.81;;;17.79;84.57
13765;BME280;6953;48.810;9.204;2023-06-10T01:59:11;98324.34;;;18.10;85.23
13765;BME280;6953;48.810;9.204;2023-06-10T02:01:36;98345.53;;;18.01;85.87
13765;BME280;6953;48.810;9.204;2023-06-10T02:04:02;98339.91;;;17.94;86.48
13765;BME280;6953;48.810;9.204;2023-06-10T02:06:27;98323.56;;;17.89;86.61
13765;BME280;6953;48.810;9.204;2023-06-10T02:08:53;98329.41;;;17.83;87.41
13765;BME280;6953;48.810;9.204;2023-06-10T02:11:18;98352.13;;;17.76;87.72
13765;BME280;6953;48.810;9.204;2023-06-10T02:13:43;98289.75;;;17.52;87.43
13765;BME280;6953;48.810;9.204;2023-06-10T02:16:08;98325.75;;;17.75;86.99
13765;BME280;6953;48.810;9.204;2023-06-10T02:18:38;98329.38;;;17.74;86.95
13765;BME280;6953;48.810;9.204;2023-06-10T02:21:03;98322.78;;;17.69;87.38
13765;BME280;6953;48.810;9.204;2023-06-10T02:23:28;98337.16;;;17.66;87.94
13765;BME280;6953;48.810;9.204;2023-06-10T02:25:54;98241.78;;;17.05;88.33
13765;BME280;6953;48.810;9.204;2023-06-10T02:28:19;98338.66;;;17.59;88.23
13765;BME280;6953;48.810;9.204;2023-06-10T02:30:44;98333.75;;;17.55;88.50
13765;BME280;6953;48.810;9.204;2023-06-10T02:33:11;98362.75;;;17.47;89.28
13765;BME280;6953;48.810;9.204;2023-06-10T02:35:40;98339.72;;;17.47;89.39
13765;BME280;6953;48.810;9.204;2023-06-10T02:38:06;98161.78;;;16.29;89.32
13765;BME280;6953;48.810;9.204;2023-06-10T02:40:31;98344.50;;;17.33;89.63
13765;BME280;6953;48.810;9.204;2023-06-10T02:42:57;98309.56;;;17.07;90.62
13765;BME280;6953;48.810;9.204;2023-06-10T02:45:23;98200.75;;;16.38;90.90
13765;BME280;6953;48.810;9.204;2023-06-10T02:47:48;98101.88;;;15.87;90.31
13765;BME280;6953;48.810;9.204;2023-06-10T02:50:14;98348.97;;;17.32;90.17
13765;BME280;6953;48.810;9.204;2023-06-10T02:52:39;98354.44;;;17.31;90.04
13765;BME280;6953;48.810;9.204;2023-06-10T02:55:05;98358.88;;;17.30;90.83
13765;BME280;6953;48.810;9.204;2023-06-10T03:00:52;98355.16;;;17.22;90.76
13765;BME280;6953;48.810;9.204;2023-06-10T03:03:17;98095.00;;;15.64;90.85
13765;BME280;6953;48.810;9.204;2023-06-10T03:05:43;98361.84;;;17.16;90.78
13765;BME280;6953;48.810;9.204;2023-06-10T03:08:08;98353.16;;;17.14;90.62
13765;BME280;6953;48.810;9.204;2023-06-10T03:10:34;98357.91;;;17.11;91.17
13765;BME280;6953;48.810;9.204;2023-06-10T03:12:59;98354.63;;;17.07;90.83
13765;BME280;6953;48.810;9.204;2023-06-10T03:15:25;98191.13;;;16.06;90.85
13765;BME280;6953;48.810;9.204;2023-06-10T03:17:50;98359.22;;;17.05;91.02
13765;BME280;6953;48.810;9.204;2023-06-10T03:20:15;98348.41;;;16.77;90.93
13765;BME280;6953;48.810;9.204;2023-06-10T03:22:41;98202.59;;;15.95;91.66
13765;BME280;6953;48.810;9.204;2023-06-10T03:25:07;98379.88;;;17.02;91.86
13765;BME280;6953;48.810;9.204;2023-06-10T03:27:40;98374.00;;;16.98;92.51
13765;BME280;6953;48.810;9.204;2023-06-10T03:30:06;98136.50;;;15.53;92.63
13765;BME280;6953;48.810;9.204;2023-06-10T03:32:31;98210.53;;;15.95;92.99
13765;BME280;6953;48.810;9.204;2023-06-10T03:34:57;98371.50;;;16.86;93.17
13765;BME280;6953;48.810;9.204;2023-06-10T03:37:24;98389.03;;;16.98;93.55
13765;BME280;6953;48.810;9.204;2023-06-10T03:39:49;98273.47;;;16.34;93.31
13765;BME280;6953;48.810;9.204;2023-06-10T03:42:14;98204.31;;;15.85;93.41
13765;BME280;6953;48.810;9.204;2023-06-10T03:44:40;98293.44;;;16.38;93.12
13765;BME280;6953;48.810;9.204;2023-06-10T03:47:05;98409.41;;;16.97;93.57
13765;BME280;6953;48.810;9.204;2023-06-10T03:49:30;98399.38;;;17.01;93.79
13765;BME280;6953;48.810;9.204;2023-06-10T03:51:56;98401.53;;;17.07;94.33
13765;BME280;6953;48.810;9.204;2023-06-10T03:54:21;98395.00;;;17.11;94.57
13765;BME280;6953;48.810;9.204;2023-06-10T03:56:47;98399.91;;;17.15;94.44
13765;BME280;6953;48.810;9.204;2023-06-10T03:59:13;98209.38;;;15.88;94.50
13765;BME280;6953;48.810;9.204;2023-06-10T04:01:38;98393.47;;;17.29;94.87
13765;BME280;6953;48.810;9.204;2023-06-10T04:04:06;98240.22;;;16.41;94.68
13765;BME280;6953;48.810;9.204;2023-06-10T04:06:31;98405.31;;;17.45;94.95
13765;BME280;6953;48.810;9.204;2023-06-10T04:08:56;98147.97;;;16.05;94.29
13765;BME280;6953;48.810;9.204;2023-06-10T04:11:23;98410.41;;;17.78;94.21
13765;BME280;6953;48.810;9.204;2023-06-10T04:13:49;98324.81;;;17.56;93.89
13765;BME280;6953;48.810;9.204;2023-06-10T04:16:14;98397.81;;;18.30;92.85
13765;BME280;6953;48.810;9.204;2023-06-10T04:18:40;98399.53;;;18.60;92.21
13765;BME280;6953;48.810;9.204;2023-06-10T04:21:07;98402.66;;;18.93;90.62
13765;BME280;6953;48.810;9.204;2023-06-10T04:23:34;98210.00;;;18.12;89.11
13765;BME280;6953;48.810;9.204;2023-06-10T04:25:59;98406.97;;;19.60;87.14
13765;BME280;6953;48.810;9.204;2023-06-10T04:28:25;98408.41;;;19.91;85.14
13765;BME280;6953;48.810;9.204;2023-06-10T04:30:50;98403.56;;;20.23;84.23
13765;BME280;6953;48.810;9.204;2023-06-10T04:33:15;98373.75;;;20.37;82.53
13765;BME280;6953;48.810;9.204;2023-06-10T04:35:41;98304.84;;;20.42;80.76
13765;BME280;6953;48.810;9.204;2023-06-10T04:38:07;98399.50;;;21.42;78.14
13765;BME280;6953;48.810;9.204;2023-06-10T04:40:32;98413.69;;;21.86;76.24
13765;BME280;6953;48.810;9.204;2023-06-10T04:42:57;98407.56;;;22.18;74.20
13765;BME280;6953;48.810;9.204;2023-06-10T04:45:23;98412.88;;;22.44;71.94
13765;BME280;6953;48.810;9.204;2023-06-10T04:47:48;98405.47;;;22.79;70.41
13765;BME280;6953;48.810;9.204;2023-06-10T04:50:13;98209.38;;;21.98;68.60
13765;BME280;6953;48.810;9.204;2023-06-10T04:52:38;98213.84;;;22.38;66.39
13765;BME280;6953;48.810;9.204;2023-06-10T04:55:06;98222.88;;;22.77;64.82
13765;BME280;6953;48.810;9.204;2023-06-10T04:57:32;98403.50;;;24.17;64.12
13765;BME280;6953;48.810;9.204;2023-06-10T04:59:57;98419.03;;;24.75;61.55
13765;BME280;6953;48.810;9.204;2023-06-10T05:02:22;98417.13;;;25.22;59.54
13765;BME280;6953;48.810;9.204;2023-06-10T05:04:48;98411.00;;;25.50;57.14
13765;BME280;6953;48.810;9.204;2023-06-10T05:07:13;98436.03;;;26.10;54.98
13765;BME280;6953;48.810;9.204;2023-06-10T05:09:38;98235.59;;;25.42;52.95
13765;BME280;6953;48.810;9.204;2023-06-10T05:12:04;98425.69;;;27.00;49.65
13765;BME280;6953;48.810;9.204;2023-06-10T05:14:30;98383.22;;;27.17;47.30
13765;BME280;6953;48.810;9.204;2023-06-10T05:16:56;98425.06;;;27.75;47.93
13765;BME280;6953;48.810;9.204;2023-06-10T05:19:22;98373.97;;;27.67;47.06
13765;BME280;6953;48.810;9.204;2023-06-10T05:21:47;98412.88;;;28.07;46.52
13765;BME280;6953;48.810;9.204;2023-06-10T05:24:13;98405.78;;;28.33;46.14
13765;BME280;6953;48.810;9.204;2023-06-10T05:26:38;98422.59;;;28.69;44.97
13765;BME280;6953;48.810;9.204;2023-06-10T05:29:04;98378.22;;;28.84;43.81
13765;BME280;6953;48.810;9.204;2023-06-10T05:31:30;98270.16;;;28.25;42.58
13765;BME280;6953;48.810;9.204;2023-06-10T05:33:55;98265.25;;;28.41;41.30
13765;BME280;6953;48.810;9.204;2023-06-10T05:36:21;98307.31;;;28.82;41.22
13765;BME280;6953;48.810;9.204;2023-06-10T05:38:47;98378.63;;;29.54;40.94
13765;BME280;6953;48.810;9.204;2023-06-10T05:41:12;98450.06;;;29.98;39.50
13765;BME280;6953;48.810;9.204;2023-06-10T05:43:37;98433.19;;;30.16;39.23
13765;BME280;6953;48.810;9.204;2023-06-10T05:46:02;98440.00;;;30.57;39.25
13765;BME280;6953;48.810;9.204;2023-06-10T05:48:28;98445.50;;;30.94;37.93
13765;BME280;6953;48.810;9.204;2023-06-10T05:50:53;98444.28;;;30.90;37.22
13765;BME280;6953;48.810;9.204;2023-06-10T05:53:18;98457.75;;;31.10;36.38
13765;BME280;6953;48.810;9.204;2023-06-10T05:55:45;98455.25;;;31.59;35.50
13765;BME280;6953;48.810;9.204;2023-06-10T05:58:11;98294.25;;;31.09;34.06
13765;BME280;6953;48.810;9.204;2023-06-10T06:00:40;98457.28;;;32.43;33.08
13765;BME280;6953;48.810;9.204;2023-06-10T06:03:07;98429.53;;;32.59;33.14
13765;BME280;6953;48.810;9.204;2023-06-10T06:05:33;98457.38;;;32.79;32.78
13765;BME280;6953;48.810;9.204;2023-06-10T06:08:01;98368.28;;;32.20;32.54
13765;BME280;6953;48.810;9.204;2023-06-10T06:10:27;98322.41;;;31.88;33.38
13765;BME280;6953;48.810;9.204;2023-06-10T06:12:52;98453.06;;;32.89;32.31
13765;BME280;6953;48.810;9.204;2023-06-10T06:15:17;98454.56;;;33.03;32.29
13765;BME280;6953;48.810;9.204;2023-06-10T06:17:43;98447.31;;;33.44;31.61
13765;BME280;6953;48.810;9.204;2023-06-10T06:20:08;98452.41;;;34.11;30.67
13765;BME280;6953;48.810;9.204;2023-06-10T06:22:33;98455.31;;;34.62;29.46
13765;BME280;6953;48.810;9.204;2023-06-10T06:24:59;98457.16;;;34.96;29.02
13765;BME280;6953;48.810;9.204;2023-06-10T06:27:24;98467.16;;;35.29;28.41
13765;BME280;6953;48.810;9.204;2023-06-10T06:29:49;98465.94;;;35.37;28.21
13765;BME280;6953;48.810;9.204;2023-06-10T06:32:15;98345.31;;;34.33;27.92
13765;BME280;6953;48.810;9.204;2023-06-10T06:34:41;98419.00;;;34.61;28.20
13765;BME280;6953;48.810;9.204;2023-06-10T06:37:06;98316.41;;;34.32;27.46
13765;BME280;6953;48.810;9.204;2023-06-10T06:39:31;98480.13;;;35.62;26.96
13765;BME280;6953;48.810;9.204;2023-06-10T06:41:56;98476.03;;;35.92;26.45
13765;BME280;6953;48.810;9.204;2023-06-10T06:44:22;98438.28;;;35.89;27.06
13765;BME280;6953;48.810;9.204;2023-06-10T06:46:47;98306.44;;;35.17;26.47
13765;BME280;6953;48.810;9.204;2023-06-10T06:49:12;98476.13;;;36.25;26.39
13765;BME280;6953;48.810;9.204;2023-06-10T06:51:37;98489.28;;;36.12;25.87
13765;BME280;6953;48.810;9.204;2023-06-10T06:54:03;98477.59;;;36.33;26.21
13765;BME280;6953;48.810;9.204;2023-06-10T06:56:30;98300.81;;;35.23;26.20
13765;BME280;6953;48.810;9.204;2023-06-10T06:58:55;98474.69;;;36.23;26.52
13765;BME280;6953;48.810;9.204;2023-06-10T07:01:21;98314.28;;;35.74;25.70
13765;BME280;6953;48.810;9.204;2023-06-10T07:03:46;98458.13;;;37.00;25.33
13765;BME280;6953;48.810;9.204;2023-06-10T07:06:12;98494.06;;;37.67;24.63
13765;BME280;6953;48.810;9.204;2023-06-10T07:08:37;98478.69;;;37.40;24.23
13765;BME280;6953;48.810;9.204;2023-06-10T07:11:02;98478.00;;;37.54;24.27
13765;BME280;6953;48.810;9.204;2023-06-10T07:13:28;98477.06;;;37.92;23.98
13765;BME280;6953;48.810;9.204;2023-06-10T07:15:53;98475.75;;;37.73;23.72
13765;BME280;6953;48.810;9.204;2023-06-10T07:18:18;98484.72;;;38.21;23.13
13765;BME280;6953;48.810;9.204;2023-06-10T07:20:43;98473.38;;;38.70;22.76
13765;BME280;6953;48.810;9.204;2023-06-10T07:23:09;98494.75;;;39.10;21.93
13765;BME280;6953;48.810;9.204;2023-06-10T07:25:34;98481.75;;;38.95;22.30
13765;BME280;6953;48.810;9.204;2023-06-10T07:27:59;98353.59;;;38.55;21.89
13765;BME280;6953;48.810;9.204;2023-06-10T07:30:25;98493.69;;;39.77;21.83
13765;BME280;6953;48.810;9.204;2023-06-10T07:32:51;98487.63;;;39.75;21.62
13765;BME280;6953;48.810;9.204;2023-06-10T07:35:16;98483.88;;;39.35;22.15
13765;BME280;6953;48.810;9.204;2023-06-10T07:37:42;98396.78;;;39.20;21.27
13765;BME280;6953;48.810;9.204;2023-06-10T07:40:07;98484.88;;;39.90;20.90
13765;BME280;6953;48.810;9.204;2023-06-10T07:42:35;98490.75;;;40.33;20.88
13765;BME280;6953;48.810;9.204;2023-06-10T07:45:01;98336.97;;;39.67;20.74
13765;BME280;6953;48.810;9.204;2023-06-10T07:47:26;98497.03;;;40.09;20.35
13765;BME280;6953;48.810;9.204;2023-06-10T07:49:51;98323.88;;;38.93;20.97
13765;BME280;6953;48.810;9.204;2023-06-10T07:52:16;98487.44;;;40.71;20.30
13765;BME280;6953;48.810;9.204;2023-06-10T07:54:42;98331.16;;;40.33;20.19
13765;BME280;6953;48.810;9.204;2023-06-10T07:57:07;98388.41;;;40.06;20.26
13765;BME280;6953;48.810;9.204;2023-06-10T07:59:33;98487.75;;;40.45;20.85
13765;BME280;6953;48.810;9.204;2023-06-10T08:01:58;98504.50;;;40.78;20.51
13765;BME280;6953;48.810;9.204;2023-06-10T08:04:23;98324.06;;;39.97;20.41
13765;BME280;6953;48.810;9.204;2023-06-10T08:06:49;98484.88;;;41.14;19.76
13765;BME280;6953;48.810;9.204;2023-06-10T08:09:14;98496.50;;;40.91;20.68
13765;BME280;6953;48.810;9.204;2023-06-10T08:11:39;98493.16;;;41.09;19.47
13765;BME280;6953;48.810;9.204;2023-06-10T08:14:05;98501.22;;;40.81;20.30
13765;BME280;6953;48.810;9.204;2023-06-10T08:16:30;98485.75;;;41.73;19.79
13765;BME280;6953;48.810;9.204;2023-06-10T08:18:55;98440.13;;;42.29;18.85
13765;BME280;6953;48.810;9.204;2023-06-10T08:21:21;98484.19;;;43.01;17.71
13765;BME280;6953;48.810;9.204;2023-06-10T08:23:46;98339.53;;;42.45;18.00
13765;BME280;6953;48.810;9.204;2023-06-10T08:26:11;98471.25;;;42.96;18.34
13765;BME280;6953;48.810;9.204;2023-06-10T08:28:37;98497.47;;;42.70;18.58
13765;BME280;6953;48.810;9.204;2023-06-10T08:31:02;98460.09;;;42.83;18.83
13765;BME280;6953;48.810;9.204;2023-06-10T08:33:27;98475.91;;;43.47;18.09
13765;BME280;6953;48.810;9.204;2023-06-10T08:35:52;98423.19;;;42.97;17.93
13765;BME280;6953;48.810;9.204;2023-06-10T08:38:18;98468.00;;;43.13;17.68
13765;BME280;6953;48.810;9.204;2023-06-10T08:40:43;98489.41;;;43.30;17.69
13765;BME280;6953;48.810;9.204;2023-06-10T08:43:23;98492.50;;;43.89;17.12
13765;BME280;6953;48.810;9.204;2023-06-10T08:45:58;98481.56;;;43.61;17.44
13765;BME280;6953;48.810;9.204;2023-06-10T08:48:27;98448.47;;;43.51;17.18
13765;BME280;6953;48.810;9.204;2023-06-10T08:50:54;98354.69;;;43.36;17.21
13765;BME280;6953;48.810;9.204;2023-06-10T08:53:20;98366.72;;;43.82;17.18
13765;BME280;6953;48.810;9.204;2023-06-10T08:55:50;98482.03;;;44.41;16.75
13765;BME280;6953;48.810;9.204;2023-06-10T08:58:17;98453.59;;;44.18;16.69
13765;BME280;6953;48.810;9.204;2023-06-10T09:00:42;98483.84;;;44.64;16.53
13765;BME280;6953;48.810;9.204;2023-06-10T09:03:09;98479.25;;;44.73;16.40
13765;BME280;6953;48.810;9.204;2023-06-10T09:05:34;98459.66;;;43.83;16.51
13765;BME280;6953;48.810;9.204;2023-06-10T09:08:01;98470.13;;;43.86;16.78
13765;BME280;6953;48.810;9.204;2023-06-10T09:10:27;98464.25;;;43.92;16.99
13765;BME280;6953;48.810;9.204;2023-06-10T09:12:52;98450.03;;;43.99;16.84
13765;BME280;6953;48.810;9.204;2023-06-10T09:15:17;98470.59;;;43.93;16.48
13765;BME280;6953;48.810;9.204;2023-06-10T09:17:43;98463.25;;;44.84;16.37
13765;BME280;6953;48.810;9.204;2023-06-10T09:20:10;98462.75;;;45.62;15.48
13765;BME280;6953;48.810;9.204;2023-06-10T09:22:36;98324.25;;;45.31;14.86
13765;BME280;6953;48.810;9.204;2023-06-10T09:25:12;98331.66;;;45.92;14.39
13765;BME280;6953;48.810;9.204;2023-06-10T09:27:45;98480.69;;;47.23;14.19
13765;BME280;6953;48.810;9.204;2023-06-10T09:30:34;98462.78;;;46.33;14.66
13765;BME280;6953;48.810;9.204;2023-06-10T09:33:02;98455.38;;;46.29;14.73
13765;BME280;6953;48.810;9.204;2023-06-10T09:35:29;98440.53;;;46.11;14.93
13765;BME280;6953;48.810;9.204;2023-06-10T09:37:57;98466.63;;;45.75;15.37
13765;BME280;6953;48.810;9.204;2023-06-10T09:40:22;98468.34;;;44.63;16.26
13765;BME280;6953;48.810;9.204;2023-06-10T09:42:59;98451.09;;;44.03;16.81
13765;BME280;6953;48.810;9.204;2023-06-10T09:45:30;98279.38;;;42.42;17.59
13765;BME280;6953;48.810;9.204;2023-06-10T09:47:56;98275.44;;;40.71;19.28
13765;BME280;6953;48.810;9.204;2023-06-10T09:50:21;98427.94;;;39.66;20.88
13765;BME280;6953;48.810;9.204;2023-06-10T09:52:47;98401.13;;;38.65;21.67
13765;BME280;6953;48.810;9.204;2023-06-10T09:55:16;98430.44;;;40.87;19.31
13765;BME280;6953;48.810;9.204;2023-06-10T09:57:42;98437.22;;;43.24;17.63
13765;BME280;6953;48.810;9.204;2023-06-10T10:00:10;98431.84;;;43.56;17.25
13765;BME280;6953;48.810;9.204;2023-06-10T10:02:52;98445.00;;;44.96;16.28
13765;BME280;6953;48.810;9.204;2023-06-10T10:05:20;98383.91;;;43.00;17.35
13765;BME280;6953;48.810;9.204;2023-06-10T10:07:46;98379.41;;;41.57;18.43
13765;BME280;6953;48.810;9.204;2023-06-10T10:10:13;98428.09;;;42.77;17.27
13765;BME280;6953;48.810;9.204;2023-06-10T10:12:39;98434.31;;;41.49;18.71
13765;BME280;6953;48.810;9.204;2023-06-10T10:15:10;98420.78;;;39.60;20.13
13765;BME280;6953;48.810;9.204;2023-06-10T10:17:40;98208.38;;;38.28;20.84
13765;BME280;6953;48.810;9.204;2023-06-10T10:20:06;98409.72;;;41.62;18.69
13765;BME280;6953;48.810;9.204;2023-06-10T10:22:38;98422.41;;;41.63;18.76
13765;BME280;6953;48.810;9.204;2023-06-10T10:25:38;98416.06;;;41.63;19.00
13765;BME280;6953;48.810;9.204;2023-06-10T10:28:10;98207.25;;;39.55;19.63
13765;BME280;6953;48.810;9.204;2023-06-10T10:30:39;98223.78;;;37.93;21.44
13765;BME280;6953;48.810;9.204;2023-06-10T10:33:12;98174.47;;;36.41;23.06
13765;BME280;6953;48.810;9.204;2023-06-10T10:35:43;98208.44;;;35.64;24.34
13765;BME280;6953;48.810;9.204;2023-06-10T10:38:09;98187.47;;;35.04;24.60
13765;BME280;6953;48.810;9.204;2023-06-10T10:40:34;98367.31;;;35.78;24.84
13765;BME280;6953;48.810;9.204;2023-06-10T10:43:00;98393.50;;;39.23;22.73
13765;BME280;6953;48.810;9.204;2023-06-10T10:45:28;98413.34;;;42.86;17.66
13765;BME280;6953;48.810;9.204;2023-06-10T10:47:54;98393.50;;;41.51;18.62
13765;BME280;6953;48.810;9.204;2023-06-10T10:50:23;98399.59;;;38.84;21.33
13765;BME280;6953;48.810;9.204;2023-06-10T10:52:55;98404.66;;;37.88;23.04
13765;BME280;6953;48.810;9.204;2023-06-10T10:55:21;98384.09;;;37.11;23.61
13765;BME280;6953;48.810;9.204;2023-06-10T10:58:13;98385.13;;;40.09;21.14
13765;BME280;6953;48.810;9.204;2023-06-10T11:00:44;98259.22;;;42.83;17.62
13765;BME280;6953;48.810;9.204;2023-06-10T11:03:14;98415.56;;;45.76;15.30
13765;BME280;6953;48.810;9.204;2023-06-10T11:05:44;98401.47;;;46.30;14.21
13765;BME280;6953;48.810;9.204;2023-06-10T11:08:13;98422.88;;;45.72;15.05
13765;BME280;6953;48.810;9.204;2023-06-10T11:10:51;98332.72;;;46.57;14.27
13765;BME280;6953;48.810;9.204;2023-06-10T11:13:20;98350.97;;;47.44;13.31
13765;BME280;6953;48.810;9.204;2023-06-10T11:15:47;98296.13;;;48.50;12.65
13765;BME280;6953;48.810;9.204;2023-06-10T11:18:25;98443.78;;;49.29;12.81
13765;BME280;6953;48.810;9.204;2023-06-10T11:20:56;98430.50;;;49.18;12.71
13765;BME280;6953;48.810;9.204;2023-06-10T11:25:51;98432.13;;;49.19;12.34
13765;BME280;6953;48.810;9.204;2023-06-10T11:28:19;98423.78;;;49.97;11.70
13765;BME280;6953;48.810;9.204;2023-06-10T11:30:45;98331.03;;;50.48;10.61
13765;BME280;6953;48.810;9.204;2023-06-10T11:33:15;98425.84;;;50.41;11.28
13765;BME280;6953;48.810;9.204;2023-06-10T11:35:41;98418.72;;;47.40;13.07
13765;BME280;6953;48.810;9.204;2023-06-10T11:38:06;98412.19;;;46.97;13.61
13765;BME280;6953;48.810;9.204;2023-06-10T11:40:32;98406.16;;;46.43;13.93
13765;BME280;6953;48.810;9.204;2023-06-10T11:42:58;98241.88;;;43.70;15.15
13765;BME280;6953;48.810;9.204;2023-06-10T11:45:23;98343.53;;;42.29;17.60
13765;BME280;6953;48.810;9.204;2023-06-10T11:47:56;98374.81;;;41.43;17.89
13765;BME280;6953;48.810;9.204;2023-06-10T11:50:29;98361.19;;;40.00;19.40
13765;BME280;6953;48.810;9.204;2023-06-10T11:52:54;98360.97;;;39.00;19.83
13765;BME280;6953;48.810;9.204;2023-06-10T11:55:21;98183.84;;;37.60;20.21
13765;BME280;6953;48.810;9.204;2023-06-10T11:57:46;98326.59;;;37.64;21.14
13765;BME280;6953;48.810;9.204;2023-06-10T12:00:12;98207.63;;;36.92;21.60
13765;BME280;6953;48.810;9.204;2023-06-10T12:02:38;98372.66;;;40.67;18.74
13765;BME280;6953;48.810;9.204;2023-06-10T12:05:13;98188.72;;;40.15;18.58
13765;BME280;6953;48.810;9.204;2023-06-10T12:07:39;98192.66;;;39.10;19.72
13765;BME280;6953;48.810;9.204;2023-06-10T12:10:04;98177.34;;;40.90;18.02
13765;BME280;6953;48.810;9.204;2023-06-10T12:12:30;98210.69;;;43.96;15.41
13765;BME280;6953;48.810;9.204;2023-06-10T12:14:57;98253.59;;;46.63;13.44
13765;BME280;6953;48.810;9.204;2023-06-10T12:20:04;98257.66;;;49.62;11.71
13765;BME280;6953;48.810;9.204;2023-06-10T12:22:41;98304.13;;;50.55;10.70
13765;BME280;6953;48.810;9.204;2023-06-10T12:25:07;98257.69;;;48.26;11.90
13765;BME280;6953;48.810;9.204;2023-06-10T12:27:34;98335.72;;;45.95;13.26
13765;BME280;6953;48.810;9.204;2023-06-10T12:30:02;98214.16;;;42.88;15.52
13765;BME280;6953;48.810;9.204;2023-06-10T12:32:42;98354.19;;;41.79;16.63
13765;BME280;6953;48.810;9.204;2023-06-10T12:35:09;98355.00;;;40.73;17.85
13765;BME280;6953;48.810;9.204;2023-06-10T12:37:35;98353.47;;;40.07;18.63
13765;BME280;6953;48.810;9.204;2023-06-10T12:40:03;98342.19;;;41.60;17.96
13765;BME280;6953;48.810;9.204;2023-06-10T12:42:29;98347.69;;;41.11;17.35
13765;BME280;6953;48.810;9.204;2023-06-10T12:44:55;98246.25;;;39.52;18.07
13765;BME280;6953;48.810;9.204;2023-06-10T12:47:30;98324.56;;;40.19;18.46
13765;BME280;6953;48.810;9.204;2023-06-10T12:49:57;98282.94;;;42.66;16.44
13765;BME280;6953;48.810;9.204;2023-06-10T12:52:23;98354.00;;;43.25;15.95
13765;BME280;6953;48.810;9.204;2023-06-10T12:54:49;98347.44;;;41.51;17.37
13765;BME280;6953;48.810;9.204;2023-06-10T12:57:14;98363.91;;;39.90;19.04
13765;BME280;6953;48.810;9.204;2023-06-10T12:59:39;98330.22;;;38.42;20.30
13765;BME280;6953;48.810;9.204;2023-06-10T13:02:05;98145.94;;;35.89;21.08
13765;BME280;6953;48.810;9.204;2023-06-10T13:04:30;98326.69;;;35.98;22.86
13765;BME280;6953;48.810;9.204;2023-06-10T13:06:56;98312.56;;;35.40;23.80
13765;BME280;6953;48.810;9.204;2023-06-10T13:09:21;98272.06;;;34.76;24.60
13765;BME280;6953;48.810;9.204;2023-06-10T13:11:46;98140.59;;;33.56;24.82
13765;BME280;6953;48.810;9.204;2023-06-10T13:14:11;98095.97;;;34.80;23.59
13765;BME280;6953;48.810;9.204;2023-06-10T13:16:37;98302.06;;;39.68;20.20
13765;BME280;6953;48.810;9.204;2023-06-10T13:19:04;98322.22;;;41.78;17.47